sensor_id;sensor_type;location;lat;lon;timestamp;P1;durP1;ratioP1;P2;durP2;ratioP2
60935;SDS011;46804;51.786;19.520;2022-09-23T00:00:31;11.65;;;5.53;;
60935;SDS011;46804;51.786;19.520;2022-09-23T00:04:52;7.30;;;4.28;;
60935;SDS011;46804;51.786;19.520;2022-09-23T00:08:52;7.82;;;5.13;;
60935;SDS011;46804;51.786;19.520;2022-09-23T00:12:54;9.48;;;4.63;;
60935;SDS011;46804;51.786;19.520;2022-09-23T00:16:55;10.60;;;4.75;;
60935;SDS011;46804;51.786;19.520;2022-09-23T00:20:55;7.93;;;4.88;;
60935;SDS011;46804;51.786;19.520;2022-09-23T00:24:56;9.98;;;5.00;;
60935;SDS011;46804;51.786;19.520;2022-09-23T00:28:57;9.90;;;4.60;;
60935;SDS011;46804;51.786;19.520;2022-09-23T00:32:57;8.70;;;4.50;;
60935;SDS011;46804;51.786;19.520;2022-09-23T00:36:58;10.90;;;4.90;;
60935;SDS011;46804;51.786;19.520;2022-09-23T00:40:59;9.20;;;4.85;;
60935;SDS011;46804;51.786;19.520;2022-09-23T00:45:00;8.02;;;4.53;;
60935;SDS011;46804;51.786;19.520;2022-09-23T00:49:02;9.18;;;4.72;;
60935;SDS011;46804;51.786;19.520;2022-09-23T00:53:10;6.00;;;3.85;;
60935;SDS011;46804;51.786;19.520;2022-09-23T00:57:13;7.95;;;4.60;;
60935;SDS011;46804;51.786;19.520;2022-09-23T01:01:17;8.18;;;4.70;;
60935;SDS011;46804;51.786;19.520;2022-09-23T01:05:19;9.20;;;4.85;;
60935;SDS011;46804;51.786;19.520;2022-09-23T01:09:20;7.38;;;4.90;;
60935;SDS011;46804;51.786;19.520;2022-09-23T01:13:24;7.05;;;4.20;;
60935;SDS011;46804;51.786;19.520;2022-09-23T01:22:21;7.38;;;4.90;;
60935;SDS011;46804;51.786;19.520;2022-09-23T01:40:25;8.63;;;5.00;;
60935;SDS011;46804;51.786;19.520;2022-09-23T01:44:39;9.17;;;5.20;;
60935;SDS011;46804;51.786;19.520;2022-09-23T01:48:54;9.15;;;4.63;;
60935;SDS011;46804;51.786;19.520;2022-09-23T01:53:09;9.33;;;4.97;;
60935;SDS011;46804;51.786;19.520;2022-09-23T01:57:15;11.73;;;5.60;;
60935;SDS011;46804;51.786;19.520;2022-09-23T02:01:26;9.18;;;5.40;;
60935;SDS011;46804;51.786;19.520;2022-09-23T02:05:33;11.52;;;5.53;;
60935;SDS011;46804;51.786;19.520;2022-09-23T02:09:40;8.93;;;5.10;;
60935;SDS011;46804;51.786;19.520;2022-09-23T02:14:01;8.60;;;4.90;;
60935;SDS011;46804;51.786;19.520;2022-09-23T02:18:21;7.55;;;4.82;;
60935;SDS011;46804;51.786;19.520;2022-09-23T02:26:48;9.05;;;5.38;;
60935;SDS011;46804;51.786;19.520;2022-09-23T02:30:58;9.02;;;5.32;;
60935;SDS011;46804;51.786;19.520;2022-09-23T02:39:19;10.23;;;5.20;;
60935;SDS011;46804;51.786;19.520;2022-09-23T02:43:24;9.50;;;4.82;;
60935;SDS011;46804;51.786;19.520;2022-09-23T02:47:34;11.60;;;5.88;;
60935;SDS011;46804;51.786;19.520;2022-09-23T02:51:38;8.70;;;5.38;;
60935;SDS011;46804;51.786;19.520;2022-09-23T02:55:40;10.88;;;5.90;;
60935;SDS011;46804;51.786;19.520;2022-09-23T02:59:42;10.25;;;5.18;;
60935;SDS011;46804;51.786;19.520;2022-09-23T03:03:46;8.80;;;5.45;;
60935;SDS011;46804;51.786;19.520;2022-09-23T03:08:09;8.27;;;5.28;;
60935;SDS011;46804;51.786;19.520;2022-09-23T03:12:22;10.73;;;5.38;;
60935;SDS011;46804;51.786;19.520;2022-09-23T03:16:46;24.42;;;7.45;;
60935;SDS011;46804;51.786;19.520;2022-09-23T03:20:56;10.82;;;6.75;;
60935;SDS011;46804;51.786;19.520;2022-09-23T03:25:05;16.33;;;8.35;;
60935;SDS011;46804;51.786;19.520;2022-09-23T03:29:08;12.90;;;7.55;;
60935;SDS011;46804;51.786;19.520;2022-09-23T03:33:11;15.95;;;7.85;;
60935;SDS011;46804;51.786;19.520;2022-09-23T03:37:17;13.63;;;7.18;;
60935;SDS011;46804;51.786;19.520;2022-09-23T03:41:26;10.68;;;6.50;;
60935;SDS011;46804;51.786;19.520;2022-09-23T03:45:31;20.05;;;5.70;;
60935;SDS011;46804;51.786;19.520;2022-09-23T03:49:34;11.68;;;5.75;;
60935;SDS011;46804;51.786;19.520;2022-09-23T03:53:36;23.87;;;6.20;;
60935;SDS011;46804;51.786;19.520;2022-09-23T03:57:37;10.70;;;5.18;;
60935;SDS011;46804;51.786;19.520;2022-09-23T04:01:37;10.85;;;5.93;;
60935;SDS011;46804;51.786;19.520;2022-09-23T04:05:38;9.85;;;5.93;;
60935;SDS011;46804;51.786;19.520;2022-09-23T04:09:38;16.63;;;5.28;;
60935;SDS011;46804;51.786;19.520;2022-09-23T04:13:39;9.30;;;5.20;;
60935;SDS011;46804;51.786;19.520;2022-09-23T04:17:40;10.15;;;5.45;;
60935;SDS011;46804;51.786;19.520;2022-09-23T04:21:41;13.52;;;5.65;;
60935;SDS011;46804;51.786;19.520;2022-09-23T04:25:46;10.38;;;6.00;;
60935;SDS011;46804;51.786;19.520;2022-09-23T04:29:47;9.32;;;5.38;;
60935;SDS011;46804;51.786;19.520;2022-09-23T04:33:48;10.95;;;6.10;;
60935;SDS011;46804;51.786;19.520;2022-09-23T04:37:49;13.52;;;5.72;;
60935;SDS011;46804;51.786;19.520;2022-09-23T04:41:50;11.05;;;5.72;;
60935;SDS011;46804;51.786;19.520;2022-09-23T04:46:01;10.20;;;6.43;;
60935;SDS011;46804;51.786;19.520;2022-09-23T04:50:02;7.65;;;4.85;;
60935;SDS011;46804;51.786;19.520;2022-09-23T04:54:03;9.73;;;5.65;;
60935;SDS011;46804;51.786;19.520;2022-09-23T04:58:04;9.90;;;5.30;;
60935;SDS011;46804;51.786;19.520;2022-09-23T05:02:05;11.45;;;5.97;;
60935;SDS011;46804;51.786;19.520;2022-09-23T05:06:05;10.75;;;5.65;;
60935;SDS011;46804;51.786;19.520;2022-09-23T05:10:07;10.60;;;5.80;;
60935;SDS011;46804;51.786;19.520;2022-09-23T05:14:08;7.75;;;5.20;;
60935;SDS011;46804;51.786;19.520;2022-09-23T05:18:09;8.05;;;5.28;;
60935;SDS011;46804;51.786;19.520;2022-09-23T05:22:09;10.50;;;5.68;;
60935;SDS011;46804;51.786;19.520;2022-09-23T05:26:10;11.13;;;5.40;;
60935;SDS011;46804;51.786;19.520;2022-09-23T05:30:12;10.00;;;6.28;;
60935;SDS011;46804;51.786;19.520;2022-09-23T05:34:13;10.85;;;6.30;;
60935;SDS011;46804;51.786;19.520;2022-09-23T05:38:14;13.98;;;7.25;;
60935;SDS011;46804;51.786;19.520;2022-09-23T05:42:16;13.15;;;7.03;;
60935;SDS011;46804;51.786;19.520;2022-09-23T05:46:24;9.88;;;6.38;;
60935;SDS011;46804;51.786;19.520;2022-09-23T05:50:27;11.15;;;7.18;;
60935;SDS011;46804;51.786;19.520;2022-09-23T05:54:27;13.15;;;7.20;;
60935;SDS011;46804;51.786;19.520;2022-09-23T05:58:28;13.75;;;7.40;;
60935;SDS011;46804;51.786;19.520;2022-09-23T06:02:29;12.00;;;7.40;;
60935;SDS011;46804;51.786;19.520;2022-09-23T06:06:31;15.90;;;8.35;;
60935;SDS011;46804;51.786;19.520;2022-09-23T06:10:43;15.98;;;7.72;;
60935;SDS011;46804;51.786;19.520;2022-09-23T06:14:44;14.10;;;7.88;;
60935;SDS011;46804;51.786;19.520;2022-09-23T06:18:45;12.73;;;8.23;;
60935;SDS011;46804;51.786;19.520;2022-09-23T06:22:46;17.10;;;8.70;;
60935;SDS011;46804;51.786;19.520;2022-09-23T06:26:46;18.63;;;8.43;;
60935;SDS011;46804;51.786;19.520;2022-09-23T06:30:47;14.50;;;8.23;;
60935;SDS011;46804;51.786;19.520;2022-09-23T06:34:49;12.38;;;7.47;;
60935;SDS011;46804;51.786;19.520;2022-09-23T06:38:50;14.20;;;7.90;;
60935;SDS011;46804;51.786;19.520;2022-09-23T06:42:57;13.95;;;8.15;;
60935;SDS011;46804;51.786;19.520;2022-09-23T06:46:59;11.05;;;7.55;;
60935;SDS011;46804;51.786;19.520;2022-09-23T06:51:00;11.50;;;7.78;;
60935;SDS011;46804;51.786;19.520;2022-09-23T06:55:01;14.80;;;8.07;;
60935;SDS011;46804;51.786;19.520;2022-09-23T06:59:03;11.90;;;7.50;;
60935;SDS011;46804;51.786;19.520;2022-09-23T07:03:06;13.07;;;8.38;;
60935;SDS011;46804;51.786;19.520;2022-09-23T07:07:07;13.05;;;6.55;;
60935;SDS011;46804;51.786;19.520;2022-09-23T07:11:10;12.27;;;7.73;;
60935;SDS011;46804;51.786;19.520;2022-09-23T07:15:12;13.05;;;6.25;;
60935;SDS011;46804;51.786;19.520;2022-09-23T07:19:14;8.73;;;5.28;;
60935;SDS011;46804;51.786;19.520;2022-09-23T07:23:14;9.52;;;5.47;;
60935;SDS011;46804;51.786;19.520;2022-09-23T07:27:17;9.75;;;6.30;;
60935;SDS011;46804;51.786;19.520;2022-09-23T07:31:19;8.52;;;5.20;;
60935;SDS011;46804;51.786;19.520;2022-09-23T07:35:19;8.55;;;5.80;;
60935;SDS011;46804;51.786;19.520;2022-09-23T07:39:20;9.65;;;5.80;;
60935;SDS011;46804;51.786;19.520;2022-09-23T07:43:20;7.90;;;4.35;;
60935;SDS011;46804;51.786;19.520;2022-09-23T07:47:21;6.82;;;4.78;;
60935;SDS011;46804;51.786;19.520;2022-09-23T07:51:26;7.95;;;3.83;;
60935;SDS011;46804;51.786;19.520;2022-09-23T07:55:28;10.10;;;4.95;;
60935;SDS011;46804;51.786;19.520;2022-09-23T07:59:29;6.50;;;3.75;;
60935;SDS011;46804;51.786;19.520;2022-09-23T08:03:31;7.95;;;3.92;;
60935;SDS011;46804;51.786;19.520;2022-09-23T08:07:32;7.80;;;4.82;;
60935;SDS011;46804;51.786;19.520;2022-09-23T08:11:35;6.03;;;3.75;;
60935;SDS011;46804;51.786;19.520;2022-09-23T08:15:38;5.13;;;3.65;;
60935;SDS011;46804;51.786;19.520;2022-09-23T08:19:39;6.25;;;3.10;;
60935;SDS011;46804;51.786;19.520;2022-09-23T08:23:40;6.25;;;4.00;;
60935;SDS011;46804;51.786;19.520;2022-09-23T08:27:40;10.30;;;5.68;;
60935;SDS011;46804;51.786;19.520;2022-09-23T08:31:41;3.97;;;2.60;;
60935;SDS011;46804;51.786;19.520;2022-09-23T08:35:42;5.35;;;2.58;;
60935;SDS011;46804;51.786;19.520;2022-09-23T08:39:42;6.20;;;2.20;;
60935;SDS011;46804;51.786;19.520;2022-09-23T08:43:46;2.75;;;2.00;;
60935;SDS011;46804;51.786;19.520;2022-09-23T08:48:04;2.72;;;1.65;;
60935;SDS011;46804;51.786;19.520;2022-09-23T08:52:34;2.15;;;1.33;;
60935;SDS011;46804;51.786;19.520;2022-09-23T08:56:54;5.20;;;1.83;;
60935;SDS011;46804;51.786;19.520;2022-09-23T09:05:12;2.17;;;1.30;;
60935;SDS011;46804;51.786;19.520;2022-09-23T09:18:18;2.80;;;1.77;;
60935;SDS011;46804;51.786;19.520;2022-09-23T09:22:25;2.50;;;1.45;;
60935;SDS011;46804;51.786;19.520;2022-09-23T09:26:37;2.95;;;1.70;;
60935;SDS011;46804;51.786;19.520;2022-09-23T09:30:39;2.35;;;1.60;;
60935;SDS011;46804;51.786;19.520;2022-09-23T09:34:44;2.67;;;1.73;;
60935;SDS011;46804;51.786;19.520;2022-09-23T09:38:49;1.98;;;1.55;;
60935;SDS011;46804;51.786;19.520;2022-09-23T09:42:50;2.42;;;1.50;;
60935;SDS011;46804;51.786;19.520;2022-09-23T09:46:59;3.17;;;1.75;;
60935;SDS011;46804;51.786;19.520;2022-09-23T09:51:22;2.47;;;1.48;;
60935;SDS011;46804;51.786;19.520;2022-09-23T09:55:25;3.72;;;1.77;;
60935;SDS011;46804;51.786;19.520;2022-09-23T09:59:27;3.85;;;1.73;;
60935;SDS011;46804;51.786;19.520;2022-09-23T10:03:32;2.53;;;1.75;;
60935;SDS011;46804;51.786;19.520;2022-09-23T10:07:42;3.55;;;1.85;;
60935;SDS011;46804;51.786;19.520;2022-09-23T10:11:43;2.83;;;1.60;;
60935;SDS011;46804;51.786;19.520;2022-09-23T10:16:21;1.88;;;1.50;;
60935;SDS011;46804;51.786;19.520;2022-09-23T10:20:22;2.78;;;1.50;;
60935;SDS011;46804;51.786;19.520;2022-09-23T10:24:23;3.42;;;1.50;;
60935;SDS011;46804;51.786;19.520;2022-09-23T10:28:31;2.33;;;1.73;;
60935;SDS011;46804;51.786;19.520;2022-09-23T10:32:42;4.25;;;1.70;;
60935;SDS011;46804;51.786;19.520;2022-09-23T10:36:44;2.92;;;1.67;;
60935;SDS011;46804;51.786;19.520;2022-09-23T10:40:54;2.65;;;1.55;;
60935;SDS011;46804;51.786;19.520;2022-09-23T10:45:20;3.65;;;1.60;;
60935;SDS011;46804;51.786;19.520;2022-09-23T10:54:21;2.40;;;1.60;;
60935;SDS011;46804;51.786;19.520;2022-09-23T11:07:59;2.20;;;1.50;;
60935;SDS011;46804;51.786;19.520;2022-09-23T11:29:53;1.60;;;1.30;;
60935;SDS011;46804;51.786;19.520;2022-09-23T11:38:06;2.60;;;1.27;;
60935;SDS011;46804;51.786;19.520;2022-09-23T11:42:15;4.93;;;1.50;;
60935;SDS011;46804;51.786;19.520;2022-09-23T11:46:29;2.97;;;1.40;;
60935;SDS011;46804;51.786;19.520;2022-09-23T11:50:43;1.80;;;1.20;;
60935;SDS011;46804;51.786;19.520;2022-09-23T11:55:00;4.18;;;2.20;;
60935;SDS011;46804;51.786;19.520;2022-09-23T11:59:14;1.73;;;1.27;;
60935;SDS011;46804;51.786;19.520;2022-09-23T12:03:26;1.90;;;1.15;;
60935;SDS011;46804;51.786;19.520;2022-09-23T12:07:50;2.67;;;1.67;;
60935;SDS011;46804;51.786;19.520;2022-09-23T12:12:02;2.28;;;1.33;;
60935;SDS011;46804;51.786;19.520;2022-09-23T12:29:10;2.83;;;1.67;;
60935;SDS011;46804;51.786;19.520;2022-09-23T12:37:34;2.65;;;1.80;;
60935;SDS011;46804;51.786;19.520;2022-09-23T12:41:38;2.92;;;1.80;;
60935;SDS011;46804;51.786;19.520;2022-09-23T12:45:41;4.03;;;1.70;;
60935;SDS011;46804;51.786;19.520;2022-09-23T12:49:42;3.35;;;1.80;;
60935;SDS011;46804;51.786;19.520;2022-09-23T12:57:48;3.65;;;2.00;;
60935;SDS011;46804;51.786;19.520;2022-09-23T13:01:49;2.88;;;1.80;;
60935;SDS011;46804;51.786;19.520;2022-09-23T13:05:51;2.40;;;1.67;;
60935;SDS011;46804;51.786;19.520;2022-09-23T13:14:18;2.00;;;1.50;;
60935;SDS011;46804;51.786;19.520;2022-09-23T13:18:22;2.15;;;1.67;;
60935;SDS011;46804;51.786;19.520;2022-09-23T13:26:54;2.92;;;1.70;;
60935;SDS011;46804;51.786;19.520;2022-09-23T13:31:05;3.72;;;1.55;;
60935;SDS011;46804;51.786;19.520;2022-09-23T13:35:15;2.03;;;1.52;;
60935;SDS011;46804;51.786;19.520;2022-09-23T13:39:24;2.38;;;1.80;;
60935;SDS011;46804;51.786;19.520;2022-09-23T13:43:28;3.45;;;1.88;;
60935;SDS011;46804;51.786;19.520;2022-09-23T13:47:30;3.20;;;1.80;;
60935;SDS011;46804;51.786;19.520;2022-09-23T13:51:35;3.50;;;1.90;;
60935;SDS011;46804;51.786;19.520;2022-09-23T13:55:36;4.22;;;1.90;;
60935;SDS011;46804;51.786;19.520;2022-09-23T13:59:40;3.92;;;2.10;;
60935;SDS011;46804;51.786;19.520;2022-09-23T14:03:41;2.58;;;1.75;;
60935;SDS011;46804;51.786;19.520;2022-09-23T14:07:43;3.72;;;1.98;;
60935;SDS011;46804;51.786;19.520;2022-09-23T14:11:44;2.20;;;1.50;;
60935;SDS011;46804;51.786;19.520;2022-09-23T14:15:45;5.90;;;1.80;;
60935;SDS011;46804;51.786;19.520;2022-09-23T14:19:46;3.08;;;1.63;;
60935;SDS011;46804;51.786;19.520;2022-09-23T14:23:47;3.55;;;1.98;;
60935;SDS011;46804;51.786;19.520;2022-09-23T14:27:48;2.88;;;1.58;;
60935;SDS011;46804;51.786;19.520;2022-09-23T14:31:53;3.35;;;1.90;;
60935;SDS011;46804;51.786;19.520;2022-09-23T14:36:06;3.10;;;1.80;;
60935;SDS011;46804;51.786;19.520;2022-09-23T14:40:30;2.85;;;1.83;;
60935;SDS011;46804;51.786;19.520;2022-09-23T14:44:32;7.03;;;5.20;;
60935;SDS011;46804;51.786;19.520;2022-09-23T14:48:34;3.27;;;1.90;;
60935;SDS011;46804;51.786;19.520;2022-09-23T14:52:35;2.72;;;1.80;;
60935;SDS011;46804;51.786;19.520;2022-09-23T14:56:39;6.05;;;1.77;;
60935;SDS011;46804;51.786;19.520;2022-09-23T15:00:51;3.97;;;2.00;;
60935;SDS011;46804;51.786;19.520;2022-09-23T15:09:23;7.65;;;2.35;;
60935;SDS011;46804;51.786;19.520;2022-09-23T15:13:27;4.70;;;1.95;;
60935;SDS011;46804;51.786;19.520;2022-09-23T15:17:33;4.55;;;2.20;;
60935;SDS011;46804;51.786;19.520;2022-09-23T15:21:41;7.13;;;2.20;;
60935;SDS011;46804;51.786;19.520;2022-09-23T15:25:43;8.18;;;2.40;;
60935;SDS011;46804;51.786;19.520;2022-09-23T15:29:44;3.75;;;2.20;;
60935;SDS011;46804;51.786;19.520;2022-09-23T15:33:45;4.57;;;2.20;;
60935;SDS011;46804;51.786;19.520;2022-09-23T15:37:48;5.07;;;2.50;;
60935;SDS011;46804;51.786;19.520;2022-09-23T15:41:49;3.63;;;2.23;;
60935;SDS011;46804;51.786;19.520;2022-09-23T15:45:51;6.28;;;2.40;;
60935;SDS011;46804;51.786;19.520;2022-09-23T15:49:56;5.22;;;2.53;;
60935;SDS011;46804;51.786;19.520;2022-09-23T15:53:57;5.45;;;2.45;;
60935;SDS011;46804;51.786;19.520;2022-09-23T15:57:57;4.50;;;2.53;;
60935;SDS011;46804;51.786;19.520;2022-09-23T16:02:00;3.65;;;2.00;;
60935;SDS011;46804;51.786;19.520;2022-09-23T16:06:04;3.45;;;1.85;;
60935;SDS011;46804;51.786;19.520;2022-09-23T16:10:06;5.65;;;2.30;;
60935;SDS011;46804;51.786;19.520;2022-09-23T16:14:08;4.18;;;2.08;;
60935;SDS011;46804;51.786;19.520;2022-09-23T16:18:13;10.27;;;2.28;;
60935;SDS011;46804;51.786;19.520;2022-09-23T16:22:14;3.15;;;2.00;;
60935;SDS011;46804;51.786;19.520;2022-09-23T16:26:16;2.95;;;2.08;;
60935;SDS011;46804;51.786;19.520;2022-09-23T16:30:24;5.88;;;2.20;;
60935;SDS011;46804;51.786;19.520;2022-09-23T16:34:26;3.40;;;2.13;;
60935;SDS011;46804;51.786;19.520;2022-09-23T16:38:26;3.33;;;1.98;;
60935;SDS011;46804;51.786;19.520;2022-09-23T16:42:28;3.72;;;2.20;;
60935;SDS011;46804;51.786;19.520;2022-09-23T16:46:29;4.55;;;2.53;;
60935;SDS011;46804;51.786;19.520;2022-09-23T16:50:30;4.88;;;2.40;;
60935;SDS011;46804;51.786;19.520;2022-09-23T16:54:32;4.57;;;2.50;;
60935;SDS011;46804;51.786;19.520;2022-09-23T16:58:36;4.78;;;2.38;;
60935;SDS011;46804;51.786;19.520;2022-09-23T17:02:38;5.25;;;2.95;;
60935;SDS011;46804;51.786;19.520;2022-09-23T17:06:57;5.72;;;2.50;;
60935;SDS011;46804;51.786;19.520;2022-09-23T17:10:58;7.15;;;3.17;;
60935;SDS011;46804;51.786;19.520;2022-09-23T17:15:02;7.18;;;2.80;;
60935;SDS011;46804;51.786;19.520;2022-09-23T17:19:08;4.90;;;3.00;;
60935;SDS011;46804;51.786;19.520;2022-09-23T17:23:10;6.28;;;3.90;;
60935;SDS011;46804;51.786;19.520;2022-09-23T17:27:10;5.57;;;3.28;;
60935;SDS011;46804;51.786;19.520;2022-09-23T17:31:11;7.05;;;4.28;;
60935;SDS011;46804;51.786;19.520;2022-09-23T17:35:11;4.85;;;3.25;;
60935;SDS011;46804;51.786;19.520;2022-09-23T17:39:12;4.55;;;2.47;;
60935;SDS011;46804;51.786;19.520;2022-09-23T17:43:13;4.90;;;2.33;;
60935;SDS011;46804;51.786;19.520;2022-09-23T17:47:13;3.42;;;2.08;;
60935;SDS011;46804;51.786;19.520;2022-09-23T17:51:14;4.05;;;1.77;;
60935;SDS011;46804;51.786;19.520;2022-09-23T17:55:18;2.58;;;1.60;;
60935;SDS011;46804;51.786;19.520;2022-09-23T17:59:19;2.58;;;1.60;;
60935;SDS011;46804;51.786;19.520;2022-09-23T18:03:19;2.17;;;1.55;;
60935;SDS011;46804;51.786;19.520;2022-09-23T18:07:20;1.95;;;1.60;;
60935;SDS011;46804;51.786;19.520;2022-09-23T18:11:25;2.22;;;1.60;;
60935;SDS011;46804;51.786;19.520;2022-09-23T18:15:29;4.53;;;2.47;;
60935;SDS011;46804;51.786;19.520;2022-09-23T18:19:30;8.55;;;4.32;;
60935;SDS011;46804;51.786;19.520;2022-09-23T18:23:30;5.25;;;3.10;;
60935;SDS011;46804;51.786;19.520;2022-09-23T18:27:32;6.03;;;2.92;;
60935;SDS011;46804;51.786;19.520;2022-09-23T18:31:34;5.43;;;2.70;;
60935;SDS011;46804;51.786;19.520;2022-09-23T18:35:35;6.57;;;2.53;;
60935;SDS011;46804;51.786;19.520;2022-09-23T18:39:36;5.15;;;2.80;;
60935;SDS011;46804;51.786;19.520;2022-09-23T18:43:36;4.80;;;2.80;;
60935;SDS011;46804;51.786;19.520;2022-09-23T18:47:37;5.40;;;3.00;;
60935;SDS011;46804;51.786;19.520;2022-09-23T18:51:56;4.72;;;2.45;;
60935;SDS011;46804;51.786;19.520;2022-09-23T18:56:03;7.32;;;2.83;;
60935;SDS011;46804;51.786;19.520;2022-09-23T19:00:13;5.25;;;2.63;;
60935;SDS011;46804;51.786;19.520;2022-09-23T19:04:15;3.72;;;2.17;;
60935;SDS011;46804;51.786;19.520;2022-09-23T19:08:18;5.72;;;2.20;;
60935;SDS011;46804;51.786;19.520;2022-09-23T19:12:18;3.78;;;2.40;;
60935;SDS011;46804;51.786;19.520;2022-09-23T19:16:22;4.17;;;2.30;;
60935;SDS011;46804;51.786;19.520;2022-09-23T19:20:23;3.60;;;2.30;;
60935;SDS011;46804;51.786;19.520;2022-09-23T19:24:24;4.20;;;2.65;;
60935;SDS011;46804;51.786;19.520;2022-09-23T19:28:24;4.10;;;2.60;;
60935;SDS011;46804;51.786;19.520;2022-09-23T19:32:25;5.07;;;2.55;;
60935;SDS011;46804;51.786;19.520;2022-09-23T19:36:30;6.05;;;3.20;;
60935;SDS011;46804;51.786;19.520;2022-09-23T19:40:33;8.38;;;4.93;;
60935;SDS011;46804;51.786;19.520;2022-09-23T19:44:36;13.93;;;7.63;;
60935;SDS011;46804;51.786;19.520;2022-09-23T19:48:37;12.02;;;7.05;;
60935;SDS011;46804;51.786;19.520;2022-09-23T19:52:37;16.67;;;8.27;;
60935;SDS011;46804;51.786;19.520;2022-09-23T19:56:38;15.43;;;8.68;;
60935;SDS011;46804;51.786;19.520;2022-09-23T20:00:39;16.73;;;9.05;;
60935;SDS011;46804;51.786;19.520;2022-09-23T20:04:39;16.80;;;9.80;;
60935;SDS011;46804;51.786;19.520;2022-09-23T20:08:40;16.65;;;9.07;;
60935;SDS011;46804;51.786;19.520;2022-09-23T20:12:42;15.75;;;8.55;;
60935;SDS011;46804;51.786;19.520;2022-09-23T20:16:43;18.75;;;9.18;;
60935;SDS011;46804;51.786;19.520;2022-09-23T20:20:52;18.05;;;9.93;;
60935;SDS011;46804;51.786;19.520;2022-09-23T20:24:53;16.65;;;11.00;;
60935;SDS011;46804;51.786;19.520;2022-09-23T20:28:55;22.65;;;11.38;;
60935;SDS011;46804;51.786;19.520;2022-09-23T20:32:56;25.70;;;12.20;;
60935;SDS011;46804;51.786;19.520;2022-09-23T20:36:57;28.92;;;13.20;;
60935;SDS011;46804;51.786;19.520;2022-09-23T20:40:58;23.00;;;12.95;;
60935;SDS011;46804;51.786;19.520;2022-09-23T20:44:59;30.70;;;14.70;;
60935;SDS011;46804;51.786;19.520;2022-09-23T20:48:59;35.88;;;16.83;;
60935;SDS011;46804;51.786;19.520;2022-09-23T20:53:01;31.80;;;14.52;;
60935;SDS011;46804;51.786;19.520;2022-09-23T20:57:01;29.88;;;13.73;;
60935;SDS011;46804;51.786;19.520;2022-09-23T21:01:03;27.80;;;13.43;;
60935;SDS011;46804;51.786;19.520;2022-09-23T21:05:09;26.05;;;13.25;;
60935;SDS011;46804;51.786;19.520;2022-09-23T21:09:10;26.25;;;12.45;;
60935;SDS011;46804;51.786;19.520;2022-09-23T21:13:11;29.40;;;13.35;;
60935;SDS011;46804;51.786;19.520;2022-09-23T21:17:11;24.80;;;13.27;;
60935;SDS011;46804;51.786;19.520;2022-09-23T21:21:12;33.75;;;14.38;;
60935;SDS011;46804;51.786;19.520;2022-09-23T21:25:13;37.47;;;15.60;;
60935;SDS011;46804;51.786;19.520;2022-09-23T21:29:14;31.20;;;14.60;;
60935;SDS011;46804;51.786;19.520;2022-09-23T21:33:15;24.15;;;10.82;;
60935;SDS011;46804;51.786;19.520;2022-09-23T21:37:17;16.77;;;8.18;;
60935;SDS011;46804;51.786;19.520;2022-09-23T21:41:18;13.35;;;7.93;;
60935;SDS011;46804;51.786;19.520;2022-09-23T21:45:19;12.55;;;7.15;;
60935;SDS011;46804;51.786;19.520;2022-09-23T21:49:19;13.52;;;7.15;;
60935;SDS011;46804;51.786;19.520;2022-09-23T21:53:20;12.90;;;6.80;;
60935;SDS011;46804;51.786;19.520;2022-09-23T21:57:22;12.23;;;6.57;;
60935;SDS011;46804;51.786;19.520;2022-09-23T22:01:31;13.57;;;7.05;;
60935;SDS011;46804;51.786;19.520;2022-09-23T22:05:34;12.75;;;6.50;;
60935;SDS011;46804;51.786;19.520;2022-09-23T22:09:37;13.32;;;7.07;;
60935;SDS011;46804;51.786;19.520;2022-09-23T22:13:39;11.60;;;6.70;;
60935;SDS011;46804;51.786;19.520;2022-09-23T22:17:40;11.13;;;6.50;;
60935;SDS011;46804;51.786;19.520;2022-09-23T22:21:42;14.10;;;7.32;;
60935;SDS011;46804;51.786;19.520;2022-09-23T22:25:43;11.90;;;7.65;;
60935;SDS011;46804;51.786;19.520;2022-09-23T22:29:44;13.15;;;7.78;;
60935;SDS011;46804;51.786;19.520;2022-09-23T22:34:03;13.98;;;7.80;;
60935;SDS011;46804;51.786;19.520;2022-09-23T22:38:04;11.90;;;7.53;;
60935;SDS011;46804;51.786;19.520;2022-09-23T22:42:05;13.13;;;8.20;;
60935;SDS011;46804;51.786;19.520;2022-09-23T22:46:06;11.75;;;7.53;;
60935;SDS011;46804;51.786;19.520;2022-09-23T22:50:07;13.13;;;7.32;;
60935;SDS011;46804;51.786;19.520;2022-09-23T22:54:09;12.50;;;8.00;;
60935;SDS011;46804;51.786;19.520;2022-09-23T22:58:10;11.68;;;7.00;;
60935;SDS011;46804;51.786;19.520;2022-09-23T23:02:10;15.35;;;7.32;;
60935;SDS011;46804;51.786;19.520;2022-09-23T23:06:11;15.50;;;8.52;;
60935;SDS011;46804;51.786;19.520;2022-09-23T23:10:11;15.80;;;9.85;;
60935;SDS011;46804;51.786;19.520;2022-09-23T23:14:14;16.73;;;9.18;;
60935;SDS011;46804;51.786;19.520;2022-09-23T23:18:16;19.63;;;9.82;;
60935;SDS011;46804;51.786;19.520;2022-09-23T23:22:16;18.23;;;9.95;;
60935;SDS011;46804;51.786;19.520;2022-09-23T23:26:18;17.02;;;9.35;;
60935;SDS011;46804;51.786;19.520;2022-09-23T23:30:22;17.30;;;9.27;;
60935;SDS011;46804;51.786;19.520;2022-09-23T23:34:23;14.70;;;9.10;;
60935;SDS011;46804;51.786;19.520;2022-09-23T23:38:23;17.08;;;9.40;;
60935;SDS011;46804;51.786;19.520;2022-09-23T23:42:24;17.00;;;9.80;;
60935;SDS011;46804;51.786;19.520;2022-09-23T23:46:26;18.92;;;10.82;;
60935;SDS011;46804;51.786;19.520;2022-09-23T23:50:28;21.90;;;11.60;;
60935;SDS011;46804;51.786;19.520;2022-09-23T23:54:29;18.23;;;9.73;;
60935;SDS011;46804;51.786;19.520;2022-09-23T23:58:31;20.17;;;10.85;;
